sensor_id;sensor_type;location;lat;lon;timestamp;pressure;altitude;pressure_sealevel;temperature;humidity
68891;BME280;55932;48.702;8.884;2023-07-28T00:01:30;95500;;;16.4;65
68891;BME280;55932;48.702;8.884;2023-07-28T00:04:08;95500;;;16.4;65
68891;BME280;55932;48.702;8.884;2023-07-28T00:06:39;95500;;;16.3;65
68891;BME280;55932;48.702;8.884;2023-07-28T00:09:03;95500;;;16.3;65
68891;BME280;55932;48.702;8.884;2023-07-28T00:11:34;95500;;;16.3;65
68891;BME280;55932;48.702;8.884;2023-07-28T00:14:05;95500;;;16.3;65
68891;BME280;55932;48.702;8.884;2023-07-28T00:19:07;95500;;;16;65.5
68891;BME280;55932;48.702;8.884;2023-07-28T00:21:38;95500;;;15.9;65.5
68891;BME280;55932;48.702;8.884;2023-07-28T00:24:09;95500;;;15.9;65.5
68891;BME280;55932;48.702;8.884;2023-07-28T00:26:40;95500;;;16;65.5
68891;BME280;55932;48.702;8.884;2023-07-28T00:29:11;95510;;;16.1;65.5
68891;BME280;55932;48.702;8.884;2023-07-28T00:31:48;95500;;;16.2;65
68891;BME280;55932;48.702;8.884;2023-07-28T00:36:44;95500;;;16.3;65
68891;BME280;55932;48.702;8.884;2023-07-28T00:41:52;95490;;;16.4;65
68891;BME280;55932;48.702;8.884;2023-07-28T00:44:22;95490;;;16.4;65
68891;BME280;55932;48.702;8.884;2023-07-28T00:46:52;95500;;;16.4;65
68891;BME280;55932;48.702;8.884;2023-07-28T00:49:16;95490;;;16.3;65
68891;BME280;55932;48.702;8.884;2023-07-28T00:51:47;95490;;;16.3;65
68891;BME280;55932;48.702;8.884;2023-07-28T00:54:18;95490;;;16.2;65
68891;BME280;55932;48.702;8.884;2023-07-28T00:56:49;95490;;;16.1;65.5
68891;BME280;55932;48.702;8.884;2023-07-28T00:59:27;95500;;;16.1;65.5
68891;BME280;55932;48.702;8.884;2023-07-28T01:04:22;95490;;;16.1;65.5
68891;BME280;55932;48.702;8.884;2023-07-28T01:06:57;95490;;;16.1;65.5
68891;BME280;55932;48.702;8.884;2023-07-28T01:11:55;95480;;;16.2;65
68891;BME280;55932;48.702;8.884;2023-07-28T01:14:26;95480;;;16.2;65
68891;BME280;55932;48.702;8.884;2023-07-28T01:17:03;95480;;;16.2;65
68891;BME280;55932;48.702;8.884;2023-07-28T01:22:37;95490;;;16.1;65
68891;BME280;55932;48.702;8.884;2023-07-28T01:24:40;95500;;;16.2;65
68891;BME280;55932;48.702;8.884;2023-07-28T01:27:09;95500;;;16.2;65
68891;BME280;55932;48.702;8.884;2023-07-28T01:29:31;95490;;;16.3;65
68891;BME280;55932;48.702;8.884;2023-07-28T01:32:03;95490;;;16.3;65
68891;BME280;55932;48.702;8.884;2023-07-28T01:34:34;95490;;;16.3;65
68891;BME280;55932;48.702;8.884;2023-07-28T01:37:05;95480;;;16.2;65
68891;BME280;55932;48.702;8.884;2023-07-28T01:42:06;95470;;;16;65.5
68891;BME280;55932;48.702;8.884;2023-07-28T01:44:37;95460;;;16;65.5
68891;BME280;55932;48.702;8.884;2023-07-28T01:47:15;95460;;;16;65.5
68891;BME280;55932;48.702;8.884;2023-07-28T01:52:17;95460;;;15.9;65.5
68891;BME280;55932;48.702;8.884;2023-07-28T01:54:48;95460;;;16;65.5
68891;BME280;55932;48.702;8.884;2023-07-28T01:57:13;95450;;;16;65.5
68891;BME280;55932;48.702;8.884;2023-07-28T02:05:04;95440;;;16;65
68891;BME280;55932;48.702;8.884;2023-07-28T02:07:22;95440;;;15.9;65.5
68891;BME280;55932;48.702;8.884;2023-07-28T02:09:52;95440;;;15.7;65.5
68891;BME280;55932;48.702;8.884;2023-07-28T02:14:46;95440;;;15.2;66
68891;BME280;55932;48.702;8.884;2023-07-28T02:17:17;95440;;;15.4;66
68891;BME280;55932;48.702;8.884;2023-07-28T02:19:50;95440;;;15.6;65.5
68891;BME280;55932;48.702;8.884;2023-07-28T02:22:19;95450;;;15.8;65.5
68891;BME280;55932;48.702;8.884;2023-07-28T02:24:56;95450;;;15.9;65.5
68891;BME280;55932;48.702;8.884;2023-07-28T02:27:26;95450;;;15.9;65.5
68891;BME280;55932;48.702;8.884;2023-07-28T02:32:20;95460;;;16.1;65
68891;BME280;55932;48.702;8.884;2023-07-28T02:37:22;95460;;;16.1;65
68891;BME280;55932;48.702;8.884;2023-07-28T02:42:23;95460;;;16.1;65
68891;BME280;55932;48.702;8.884;2023-07-28T02:44:55;95460;;;16.2;65
68891;BME280;55932;48.702;8.884;2023-07-28T02:47:25;95460;;;16.3;65
68891;BME280;55932;48.702;8.884;2023-07-28T02:49:56;95470;;;16.4;65
68891;BME280;55932;48.702;8.884;2023-07-28T02:52:27;95470;;;16.4;65
68891;BME280;55932;48.702;8.884;2023-07-28T02:55:05;95470;;;16.6;64.5
68891;BME280;55932;48.702;8.884;2023-07-28T03:00:00;95480;;;16.7;64.5
68891;BME280;55932;48.702;8.884;2023-07-28T03:02:31;95480;;;16.7;64.5
68891;BME280;55932;48.702;8.884;2023-07-28T03:10:10;95490;;;16.8;64.5
68891;BME280;55932;48.702;8.884;2023-07-28T03:12:41;95490;;;16.8;64.5
68891;BME280;55932;48.702;8.884;2023-07-28T03:15:11;95490;;;16.9;64.5
68891;BME280;55932;48.702;8.884;2023-07-28T03:17:40;95500;;;17;64.5
68891;BME280;55932;48.702;8.884;2023-07-28T03:20:11;95500;;;17;64.5
68891;BME280;55932;48.702;8.884;2023-07-28T03:22:42;95500;;;17.1;64.5
68891;BME280;55932;48.702;8.884;2023-07-28T03:25:12;95500;;;17.1;64.5
68891;BME280;55932;48.702;8.884;2023-07-28T03:27:37;95500;;;17.2;64
68891;BME280;55932;48.702;8.884;2023-07-28T03:30:08;95500;;;17.2;64
68891;BME280;55932;48.702;8.884;2023-07-28T03:32:39;95500;;;17.2;64.5
68891;BME280;55932;48.702;8.884;2023-07-28T03:35:03;95510;;;17.1;64.5
68891;BME280;55932;48.702;8.884;2023-07-28T03:37:34;95510;;;17.2;64.5
68891;BME280;55932;48.702;8.884;2023-07-28T03:42:35;95510;;;17.3;64
68891;BME280;55932;48.702;8.884;2023-07-28T03:45:06;95520;;;17.3;64.5
68891;BME280;55932;48.702;8.884;2023-07-28T03:52:38;95520;;;17;64.5
68891;BME280;55932;48.702;8.884;2023-07-28T03:55:09;95520;;;16.8;64.5
68891;BME280;55932;48.702;8.884;2023-07-28T04:00:16;95530;;;16.7;64.5
68891;BME280;55932;48.702;8.884;2023-07-28T04:02:47;95530;;;16.6;65
68891;BME280;55932;48.702;8.884;2023-07-28T04:07:43;95530;;;16.6;65
68891;BME280;55932;48.702;8.884;2023-07-28T04:10:13;95530;;;16.6;65
68891;BME280;55932;48.702;8.884;2023-07-28T04:12:44;95530;;;16.5;65
68891;BME280;55932;48.702;8.884;2023-07-28T04:22:47;95520;;;16.5;65
68891;BME280;55932;48.702;8.884;2023-07-28T04:25:18;95520;;;16.5;65
68891;BME280;55932;48.702;8.884;2023-07-28T04:27:56;95510;;;16.6;64.5
68891;BME280;55932;48.702;8.884;2023-07-28T04:30:27;95510;;;16.6;64.5
68891;BME280;55932;48.702;8.884;2023-07-28T04:32:57;95500;;;16.6;64.5
68891;BME280;55932;48.702;8.884;2023-07-28T04:35:29;95500;;;16.6;64.5
68891;BME280;55932;48.702;8.884;2023-07-28T04:37:59;95510;;;16.5;64.5
68891;BME280;55932;48.702;8.884;2023-07-28T04:40:23;95510;;;16.5;65
68891;BME280;55932;48.702;8.884;2023-07-28T04:42:54;95510;;;16.5;64.5
68891;BME280;55932;48.702;8.884;2023-07-28T04:50:26;95510;;;16.4;64.5
68891;BME280;55932;48.702;8.884;2023-07-28T04:52:57;95510;;;16.3;65
68891;BME280;55932;48.702;8.884;2023-07-28T04:55:28;95510;;;16.3;65
68891;BME280;55932;48.702;8.884;2023-07-28T05:00:42;95510;;;16.2;65
68891;BME280;55932;48.702;8.884;2023-07-28T05:03:15;95520;;;16.1;65
68891;BME280;55932;48.702;8.884;2023-07-28T05:05:43;95520;;;16;65
68891;BME280;55932;48.702;8.884;2023-07-28T05:10:36;95530;;;16;65
68891;BME280;55932;48.702;8.884;2023-07-28T05:13:08;95520;;;16;65
68891;BME280;55932;48.702;8.884;2023-07-28T05:15:45;95530;;;16;65
68891;BME280;55932;48.702;8.884;2023-07-28T05:23:30;95530;;;16;65
68891;BME280;55932;48.702;8.884;2023-07-28T05:25:48;95540;;;16.1;65
68891;BME280;55932;48.702;8.884;2023-07-28T05:30:41;95540;;;16.2;65
68891;BME280;55932;48.702;8.884;2023-07-28T05:33:12;95540;;;16.2;64.5
68891;BME280;55932;48.702;8.884;2023-07-28T05:35:43;95540;;;16.4;64.5
68891;BME280;55932;48.702;8.884;2023-07-28T05:38:07;95550;;;16.4;64.5
68891;BME280;55932;48.702;8.884;2023-07-28T05:45:45;95560;;;16.4;64.5
68891;BME280;55932;48.702;8.884;2023-07-28T05:48:10;95560;;;16.4;64.5
68891;BME280;55932;48.702;8.884;2023-07-28T05:50:41;95560;;;16.4;64.5
68891;BME280;55932;48.702;8.884;2023-07-28T05:53:12;95560;;;16.3;64.5
68891;BME280;55932;48.702;8.884;2023-07-28T05:55:49;95570;;;16.3;64.5
68891;BME280;55932;48.702;8.884;2023-07-28T05:58:20;95570;;;16.3;64.5
68891;BME280;55932;48.702;8.884;2023-07-28T06:00:51;95570;;;16.3;64.5
68891;BME280;55932;48.702;8.884;2023-07-28T06:03:16;95570;;;16.3;64.5
68891;BME280;55932;48.702;8.884;2023-07-28T06:05:45;95570;;;16.5;64.5
68891;BME280;55932;48.702;8.884;2023-07-28T06:13:18;95580;;;16.8;64
68891;BME280;55932;48.702;8.884;2023-07-28T06:15:48;95590;;;16.9;64
68891;BME280;55932;48.702;8.884;2023-07-28T06:18:19;95580;;;17;64
68891;BME280;55932;48.702;8.884;2023-07-28T06:20:50;95580;;;17.2;63.5
68891;BME280;55932;48.702;8.884;2023-07-28T06:23:34;95590;;;17.4;63.5
68891;BME280;55932;48.702;8.884;2023-07-28T06:25:59;95590;;;17.6;63
68891;BME280;55932;48.702;8.884;2023-07-28T06:28:29;95590;;;17.6;63
68891;BME280;55932;48.702;8.884;2023-07-28T06:30:54;95590;;;17.5;63.5
68891;BME280;55932;48.702;8.884;2023-07-28T06:33:28;95580;;;17.6;63
68891;BME280;55932;48.702;8.884;2023-07-28T06:46:00;95580;;;18;62.5
68891;BME280;55932;48.702;8.884;2023-07-28T06:48:28;95580;;;18.2;62.5
68891;BME280;55932;48.702;8.884;2023-07-28T06:50:59;95580;;;18.1;62.5
68891;BME280;55932;48.702;8.884;2023-07-28T06:53:36;95590;;;18.2;62
68891;BME280;55932;48.702;8.884;2023-07-28T06:56:07;95590;;;18.4;62
68891;BME280;55932;48.702;8.884;2023-07-28T06:58:38;95590;;;18.7;61.5
68891;BME280;55932;48.702;8.884;2023-07-28T07:01:09;95590;;;19;61.5
68891;BME280;55932;48.702;8.884;2023-07-28T07:03:40;95590;;;19.1;61
68891;BME280;55932;48.702;8.884;2023-07-28T07:11:06;95600;;;19.3;61.5
68891;BME280;55932;48.702;8.884;2023-07-28T07:13:36;95610;;;19.4;61.5
68891;BME280;55932;48.702;8.884;2023-07-28T07:16:15;95600;;;19.5;61.5
68891;BME280;55932;48.702;8.884;2023-07-28T07:18:38;95610;;;19.6;61.5
68891;BME280;55932;48.702;8.884;2023-07-28T07:21:15;95600;;;19.8;61
68891;BME280;55932;48.702;8.884;2023-07-28T07:23:46;95610;;;19.7;61.5
68891;BME280;55932;48.702;8.884;2023-07-28T07:26:18;95610;;;19.7;61
68891;BME280;55932;48.702;8.884;2023-07-28T07:31:12;95600;;;19.4;61.5
68891;BME280;55932;48.702;8.884;2023-07-28T07:33:47;95600;;;19.3;62
68891;BME280;55932;48.702;8.884;2023-07-28T07:36:15;95610;;;19.2;62
68891;BME280;55932;48.702;8.884;2023-07-28T07:43:47;95620;;;19.3;61.5
68891;BME280;55932;48.702;8.884;2023-07-28T07:46:18;95620;;;19.3;62
68891;BME280;55932;48.702;8.884;2023-07-28T07:48:48;95620;;;19.3;62
68891;BME280;55932;48.702;8.884;2023-07-28T07:51:25;95620;;;19.3;62
68891;BME280;55932;48.702;8.884;2023-07-28T07:53:56;95630;;;19.3;62
68891;BME280;55932;48.702;8.884;2023-07-28T07:58:51;95630;;;19.8;61.5
68891;BME280;55932;48.702;8.884;2023-07-28T08:01:22;95640;;;20.1;61.5
68891;BME280;55932;48.702;8.884;2023-07-28T08:08:54;95630;;;20.7;61
68891;BME280;55932;48.702;8.884;2023-07-28T08:11:25;95630;;;20.8;61
68891;BME280;55932;48.702;8.884;2023-07-28T08:13:56;95630;;;20.9;61
68891;BME280;55932;48.702;8.884;2023-07-28T08:21:28;95630;;;21.1;61
68891;BME280;55932;48.702;8.884;2023-07-28T08:24:13;95640;;;21.2;61
68891;BME280;55932;48.702;8.884;2023-07-28T08:26:43;95640;;;21.1;61
68891;BME280;55932;48.702;8.884;2023-07-28T08:29:12;95650;;;21.4;61.5
68891;BME280;55932;48.702;8.884;2023-07-28T08:31:49;95650;;;22;61.5
68891;BME280;55932;48.702;8.884;2023-07-28T08:34:26;95640;;;22.5;61.5
68891;BME280;55932;48.702;8.884;2023-07-28T08:36:43;95640;;;22.7;61
68891;BME280;55932;48.702;8.884;2023-07-28T08:41:38;95650;;;23.2;61
68891;BME280;55932;48.702;8.884;2023-07-28T08:44:09;95640;;;23;61
68891;BME280;55932;48.702;8.884;2023-07-28T08:46:39;95650;;;23;61
68891;BME280;55932;48.702;8.884;2023-07-28T08:51:34;95660;;;24.2;60.5
68891;BME280;55932;48.702;8.884;2023-07-28T08:54:10;95660;;;23.9;60
68891;BME280;55932;48.702;8.884;2023-07-28T09:01:39;95660;;;23;61
68891;BME280;55932;48.702;8.884;2023-07-28T09:04:15;95660;;;23.3;61
68891;BME280;55932;48.702;8.884;2023-07-28T09:09:10;95670;;;24.4;60.5
68891;BME280;55932;48.702;8.884;2023-07-28T09:14:24;95660;;;24.1;60.5
68891;BME280;55932;48.702;8.884;2023-07-28T09:16:54;95660;;;23.9;61
68891;BME280;55932;48.702;8.884;2023-07-28T09:19:25;95660;;;23.8;60.5
68891;BME280;55932;48.702;8.884;2023-07-28T09:21:58;95660;;;24;60.5
68891;BME280;55932;48.702;8.884;2023-07-28T09:24:33;95660;;;24.7;60
68891;BME280;55932;48.702;8.884;2023-07-28T09:26:55;95660;;;25.2;59.5
68891;BME280;55932;48.702;8.884;2023-07-28T09:29:32;95660;;;25.1;59.5
68891;BME280;55932;48.702;8.884;2023-07-28T09:32:04;95670;;;24.9;59.5
68891;BME280;55932;48.702;8.884;2023-07-28T09:34:27;95670;;;25.3;59.5
68891;BME280;55932;48.702;8.884;2023-07-28T09:36:50;95670;;;26;60
68891;BME280;55932;48.702;8.884;2023-07-28T09:39:21;95660;;;25.8;59.5
68891;BME280;55932;48.702;8.884;2023-07-28T09:41:52;95660;;;24.9;60
68891;BME280;55932;48.702;8.884;2023-07-28T09:44:23;95670;;;24.2;61
68891;BME280;55932;48.702;8.884;2023-07-28T09:47:00;95670;;;23.5;61.5
68891;BME280;55932;48.702;8.884;2023-07-28T09:49:35;95670;;;23.3;62
68891;BME280;55932;48.702;8.884;2023-07-28T09:54:28;95670;;;23.8;61
68891;BME280;55932;48.702;8.884;2023-07-28T09:56:58;95670;;;24.1;61
68891;BME280;55932;48.702;8.884;2023-07-28T09:59:29;95670;;;24.2;61
68891;BME280;55932;48.702;8.884;2023-07-28T10:01:59;95670;;;24.2;61
68891;BME280;55932;48.702;8.884;2023-07-28T10:09:32;95680;;;24;61
68891;BME280;55932;48.702;8.884;2023-07-28T10:12:03;95680;;;24.3;60.5
68891;BME280;55932;48.702;8.884;2023-07-28T10:14:41;95680;;;24.6;60.5
68891;BME280;55932;48.702;8.884;2023-07-28T10:19:36;95680;;;26.4;59
68891;BME280;55932;48.702;8.884;2023-07-28T10:22:08;95680;;;26.7;58.5
68891;BME280;55932;48.702;8.884;2023-07-28T10:24:55;95680;;;26.3;59
68891;BME280;55932;48.702;8.884;2023-07-28T10:27:09;95680;;;25.9;59.5
68891;BME280;55932;48.702;8.884;2023-07-28T10:29:40;95680;;;25.6;60
68891;BME280;55932;48.702;8.884;2023-07-28T10:32:12;95690;;;25.4;60
68891;BME280;55932;48.702;8.884;2023-07-28T10:34:43;95690;;;25.2;60.5
68891;BME280;55932;48.702;8.884;2023-07-28T10:37:16;95680;;;24.7;61
68891;BME280;55932;48.702;8.884;2023-07-28T10:39:44;95690;;;24.3;61.5
68891;BME280;55932;48.702;8.884;2023-07-28T10:42:21;95680;;;24.1;61.5
68891;BME280;55932;48.702;8.884;2023-07-28T10:47:16;95690;;;24.5;61
68891;BME280;55932;48.702;8.884;2023-07-28T10:52:24;95690;;;25;60.5
68891;BME280;55932;48.702;8.884;2023-07-28T10:55:01;95690;;;25.1;60
68891;BME280;55932;48.702;8.884;2023-07-28T10:59:50;95690;;;24.8;60.5
68891;BME280;55932;48.702;8.884;2023-07-28T11:02:19;95690;;;24.4;61
68891;BME280;55932;48.702;8.884;2023-07-28T11:04:50;95700;;;24.1;61.5
68891;BME280;55932;48.702;8.884;2023-07-28T11:07:21;95700;;;23.8;62
68891;BME280;55932;48.702;8.884;2023-07-28T11:10:01;95700;;;23.9;61.5
68891;BME280;55932;48.702;8.884;2023-07-28T11:17:46;95700;;;24.4;61
68891;BME280;55932;48.702;8.884;2023-07-28T11:20:02;95700;;;24;62
68891;BME280;55932;48.702;8.884;2023-07-28T11:22:32;95700;;;24;61.5
68891;BME280;55932;48.702;8.884;2023-07-28T11:27:26;95700;;;23.6;62
68891;BME280;55932;48.702;8.884;2023-07-28T11:29:57;95710;;;23.2;62.5
68891;BME280;55932;48.702;8.884;2023-07-28T11:32:28;95720;;;22.5;63.5
68891;BME280;55932;48.702;8.884;2023-07-28T11:35:03;95720;;;21.4;64.5
68891;BME280;55932;48.702;8.884;2023-07-28T11:42:45;95720;;;19.6;66
68891;BME280;55932;48.702;8.884;2023-07-28T11:45:25;95720;;;20;65.5
68891;BME280;55932;48.702;8.884;2023-07-28T11:47:39;95710;;;20.3;65
68891;BME280;55932;48.702;8.884;2023-07-28T11:52:33;95710;;;21;64
68891;BME280;55932;48.702;8.884;2023-07-28T11:55:05;95700;;;21.2;63.5
68891;BME280;55932;48.702;8.884;2023-07-28T12:00:04;95710;;;22.1;62.5
68891;BME280;55932;48.702;8.884;2023-07-28T12:02:31;95700;;;22.6;62
68891;BME280;55932;48.702;8.884;2023-07-28T12:05:00;95700;;;22.7;62
68891;BME280;55932;48.702;8.884;2023-07-28T12:07:31;95700;;;23;61.5
68891;BME280;55932;48.702;8.884;2023-07-28T12:10:03;95700;;;23.5;61
68891;BME280;55932;48.702;8.884;2023-07-28T12:17:35;95700;;;23.6;61
68891;BME280;55932;48.702;8.884;2023-07-28T12:22:37;95690;;;24.3;60.5
68891;BME280;55932;48.702;8.884;2023-07-28T12:32:39;95680;;;24;61
68891;BME280;55932;48.702;8.884;2023-07-28T12:35:10;95680;;;23.8;61.5
68891;BME280;55932;48.702;8.884;2023-07-28T12:37:40;95690;;;23.8;61.5
68891;BME280;55932;48.702;8.884;2023-07-28T12:40:25;95690;;;23.6;62
68891;BME280;55932;48.702;8.884;2023-07-28T12:42:55;95690;;;23.5;62
68891;BME280;55932;48.702;8.884;2023-07-28T12:47:48;95700;;;23.4;62
68891;BME280;55932;48.702;8.884;2023-07-28T12:50:20;95690;;;23.3;62.5
68891;BME280;55932;48.702;8.884;2023-07-28T12:52:51;95690;;;23;62.5
68891;BME280;55932;48.702;8.884;2023-07-28T13:00:30;95700;;;22.6;63
68891;BME280;55932;48.702;8.884;2023-07-28T13:03:07;95700;;;22.3;63.5
68891;BME280;55932;48.702;8.884;2023-07-28T13:05:24;95710;;;22;64
68891;BME280;55932;48.702;8.884;2023-07-28T13:07:54;95710;;;21.6;64.5
68891;BME280;55932;48.702;8.884;2023-07-28T13:10:25;95710;;;21.4;64.5
68891;BME280;55932;48.702;8.884;2023-07-28T13:12:56;95720;;;21.4;64
68891;BME280;55932;48.702;8.884;2023-07-28T13:15:34;95720;;;21;64.5
68891;BME280;55932;48.702;8.884;2023-07-28T13:20:30;95730;;;20.4;65
68891;BME280;55932;48.702;8.884;2023-07-28T13:23:01;95730;;;20;65
68891;BME280;55932;48.702;8.884;2023-07-28T13:25:35;95740;;;19.8;65
68891;BME280;55932;48.702;8.884;2023-07-28T13:28:03;95740;;;19.5;65
68891;BME280;55932;48.702;8.884;2023-07-28T13:30:33;95760;;;19.1;65.5
68891;BME280;55932;48.702;8.884;2023-07-28T13:33:04;95770;;;18.9;65.5
68891;BME280;55932;48.702;8.884;2023-07-28T13:35:44;95780;;;18.6;66
68891;BME280;55932;48.702;8.884;2023-07-28T13:40:44;95780;;;18.3;66
68891;BME280;55932;48.702;8.884;2023-07-28T13:45:39;95740;;;17.7;66.5
68891;BME280;55932;48.702;8.884;2023-07-28T13:48:10;95750;;;17.7;66.5
68891;BME280;55932;48.702;8.884;2023-07-28T13:50:41;95730;;;17.7;66.5
68891;BME280;55932;48.702;8.884;2023-07-28T13:53:12;95720;;;17.9;66
68891;BME280;55932;48.702;8.884;2023-07-28T13:55:43;95710;;;17.9;66
68891;BME280;55932;48.702;8.884;2023-07-28T13:58:14;95710;;;18.1;65.5
68891;BME280;55932;48.702;8.884;2023-07-28T14:00:51;95700;;;18.2;65.5
68891;BME280;55932;48.702;8.884;2023-07-28T14:03:15;95700;;;18.2;65.5
68891;BME280;55932;48.702;8.884;2023-07-28T14:05:46;95710;;;18.3;65.5
68891;BME280;55932;48.702;8.884;2023-07-28T14:08:24;95710;;;18.3;65.5
68891;BME280;55932;48.702;8.884;2023-07-28T14:13:20;95750;;;18.4;65.5
68891;BME280;55932;48.702;8.884;2023-07-28T14:15:51;95760;;;18.6;65.5
68891;BME280;55932;48.702;8.884;2023-07-28T14:18:21;95750;;;18.8;65
68891;BME280;55932;48.702;8.884;2023-07-28T14:20:52;95760;;;18.9;64.5
68891;BME280;55932;48.702;8.884;2023-07-28T14:23:25;95750;;;19.1;64.5
68891;BME280;55932;48.702;8.884;2023-07-28T14:26:01;95750;;;19.3;64.5
68891;BME280;55932;48.702;8.884;2023-07-28T14:28:25;95760;;;19.4;64
68891;BME280;55932;48.702;8.884;2023-07-28T14:31:03;95750;;;19.4;64.5
68891;BME280;55932;48.702;8.884;2023-07-28T14:33:27;95750;;;19.4;64.5
68891;BME280;55932;48.702;8.884;2023-07-28T14:36:05;95740;;;19.5;64.5
68891;BME280;55932;48.702;8.884;2023-07-28T14:38:36;95740;;;19.8;64
68891;BME280;55932;48.702;8.884;2023-07-28T14:46:08;95720;;;20.6;63
68891;BME280;55932;48.702;8.884;2023-07-28T14:48:38;95720;;;20.9;63
68891;BME280;55932;48.702;8.884;2023-07-28T14:53:33;95720;;;21.4;62
68891;BME280;55932;48.702;8.884;2023-07-28T14:56:03;95720;;;21.4;62.5
68891;BME280;55932;48.702;8.884;2023-07-28T14:58:34;95730;;;21.6;62
68891;BME280;55932;48.702;8.884;2023-07-28T15:01:05;95730;;;21.5;62
68891;BME280;55932;48.702;8.884;2023-07-28T15:03:44;95730;;;21.3;62.5
68891;BME280;55932;48.702;8.884;2023-07-28T15:06:13;95730;;;21.2;62.5
68891;BME280;55932;48.702;8.884;2023-07-28T15:11:08;95730;;;20.9;63
68891;BME280;55932;48.702;8.884;2023-07-28T15:13:39;95740;;;20.5;64
68891;BME280;55932;48.702;8.884;2023-07-28T15:16:10;95740;;;20.4;64
68891;BME280;55932;48.702;8.884;2023-07-28T15:18:41;95750;;;20.2;64
68891;BME280;55932;48.702;8.884;2023-07-28T15:23:36;95750;;;20;64.5
68891;BME280;55932;48.702;8.884;2023-07-28T15:26:06;95750;;;20;64
68891;BME280;55932;48.702;8.884;2023-07-28T15:33:39;95750;;;19.9;64.5
68891;BME280;55932;48.702;8.884;2023-07-28T15:36:09;95750;;;19.8;64.5
68891;BME280;55932;48.702;8.884;2023-07-28T15:38:40;95750;;;19.8;64.5
68891;BME280;55932;48.702;8.884;2023-07-28T15:41:11;95750;;;19.8;64
68891;BME280;55932;48.702;8.884;2023-07-28T15:43:42;95740;;;19.9;64
68891;BME280;55932;48.702;8.884;2023-07-28T15:46:12;95740;;;19.9;64
68891;BME280;55932;48.702;8.884;2023-07-28T15:48:43;95740;;;19.8;64
68891;BME280;55932;48.702;8.884;2023-07-28T15:51:14;95750;;;19.7;64
68891;BME280;55932;48.702;8.884;2023-07-28T15:53:45;95750;;;19.7;64
68891;BME280;55932;48.702;8.884;2023-07-28T15:56:22;95740;;;19.6;64
68891;BME280;55932;48.702;8.884;2023-07-28T16:03:48;95740;;;19.6;64
68891;BME280;55932;48.702;8.884;2023-07-28T16:06:18;95740;;;19.6;64
68891;BME280;55932;48.702;8.884;2023-07-28T16:08:50;95740;;;19.6;64
68891;BME280;55932;48.702;8.884;2023-07-28T16:11:29;95740;;;19.6;64
68891;BME280;55932;48.702;8.884;2023-07-28T16:13:58;95740;;;19.5;64
68891;BME280;55932;48.702;8.884;2023-07-28T16:16:29;95730;;;19.5;64.5
68891;BME280;55932;48.702;8.884;2023-07-28T16:19:00;95730;;;19.6;64.5
68891;BME280;55932;48.702;8.884;2023-07-28T16:21:31;95730;;;19.7;64
68891;BME280;55932;48.702;8.884;2023-07-28T16:24:02;95730;;;19.7;64
68891;BME280;55932;48.702;8.884;2023-07-28T16:26:33;95720;;;19.7;64
68891;BME280;55932;48.702;8.884;2023-07-28T16:29:12;95720;;;19.7;64
68891;BME280;55932;48.702;8.884;2023-07-28T16:31:41;95720;;;19.6;64.5
68891;BME280;55932;48.702;8.884;2023-07-28T16:39:07;95720;;;19.8;63.5
68891;BME280;55932;48.702;8.884;2023-07-28T16:44:15;95720;;;20.3;63
68891;BME280;55932;48.702;8.884;2023-07-28T16:46:45;95710;;;20.5;63
68891;BME280;55932;48.702;8.884;2023-07-28T16:49:09;95720;;;20.7;63
68891;BME280;55932;48.702;8.884;2023-07-28T16:51:40;95720;;;20.6;63
68891;BME280;55932;48.702;8.884;2023-07-28T16:54:11;95730;;;20.6;63
68891;BME280;55932;48.702;8.884;2023-07-28T16:56:42;95730;;;20.6;63
68891;BME280;55932;48.702;8.884;2023-07-28T16:59:19;95740;;;20.4;63.5
68891;BME280;55932;48.702;8.884;2023-07-28T17:01:49;95730;;;20.2;63.5
68891;BME280;55932;48.702;8.884;2023-07-28T17:06:43;95740;;;20;64
68891;BME280;55932;48.702;8.884;2023-07-28T17:09:14;95750;;;20;64
68891;BME280;55932;48.702;8.884;2023-07-28T17:14:09;95750;;;19.7;64
68891;BME280;55932;48.702;8.884;2023-07-28T17:16:39;95750;;;19.6;64
68891;BME280;55932;48.702;8.884;2023-07-28T17:19:10;95750;;;19.5;64.5
68891;BME280;55932;48.702;8.884;2023-07-28T17:29:14;95760;;;19.1;64.5
68891;BME280;55932;48.702;8.884;2023-07-28T17:31:44;95760;;;19.1;64.5
68891;BME280;55932;48.702;8.884;2023-07-28T17:34:16;95760;;;19.2;64.5
68891;BME280;55932;48.702;8.884;2023-07-28T17:36:47;95750;;;19.3;64.5
68891;BME280;55932;48.702;8.884;2023-07-28T17:39:16;95750;;;19.4;64.5
68891;BME280;55932;48.702;8.884;2023-07-28T17:41:54;95740;;;19.3;64.5
68891;BME280;55932;48.702;8.884;2023-07-28T17:44:25;95740;;;19.3;64.5
68891;BME280;55932;48.702;8.884;2023-07-28T17:46:56;95740;;;19.4;64.5
68891;BME280;55932;48.702;8.884;2023-07-28T17:49:27;95750;;;19.3;64.5
68891;BME280;55932;48.702;8.884;2023-07-28T17:59:24;95740;;;19.3;64.5
68891;BME280;55932;48.702;8.884;2023-07-28T18:04:25;95740;;;19.4;64.5
68891;BME280;55932;48.702;8.884;2023-07-28T18:07:01;95740;;;19.5;64
68891;BME280;55932;48.702;8.884;2023-07-28T18:09:27;95740;;;19.6;64
68891;BME280;55932;48.702;8.884;2023-07-28T18:11:58;95740;;;19.6;64
68891;BME280;55932;48.702;8.884;2023-07-28T18:17:12;95750;;;19.5;64
68891;BME280;55932;48.702;8.884;2023-07-28T18:19:42;95750;;;19.3;64.5
68891;BME280;55932;48.702;8.884;2023-07-28T18:22:12;95760;;;19.2;64.5
68891;BME280;55932;48.702;8.884;2023-07-28T18:24:42;95760;;;19;65
68891;BME280;55932;48.702;8.884;2023-07-28T18:27:13;95770;;;18.9;64.5
68891;BME280;55932;48.702;8.884;2023-07-28T18:29:38;95770;;;18.8;65
68891;BME280;55932;48.702;8.884;2023-07-28T18:34:32;95760;;;18.7;65
68891;BME280;55932;48.702;8.884;2023-07-28T18:37:03;95760;;;18.5;65
68891;BME280;55932;48.702;8.884;2023-07-28T18:39:34;95770;;;18.3;65.5
68891;BME280;55932;48.702;8.884;2023-07-28T18:42:05;95770;;;18.1;66
68891;BME280;55932;48.702;8.884;2023-07-28T18:44:52;95770;;;18;66
68891;BME280;55932;48.702;8.884;2023-07-28T18:47:06;95760;;;17.9;66
68891;BME280;55932;48.702;8.884;2023-07-28T18:54:38;95780;;;17.8;66
68891;BME280;55932;48.702;8.884;2023-07-28T18:59:47;95770;;;17.6;66
68891;BME280;55932;48.702;8.884;2023-07-28T19:04:47;95780;;;17.5;66
68891;BME280;55932;48.702;8.884;2023-07-28T19:09:49;95790;;;17.4;66.5